Search for airport 
image banner adimage banner adimage banner ad
image banner ad

KTRK - Truckee-Tahoe

Located in Truckee, United States

ICAO - TRK, IATA - TKF

Data provided by Airmate  

General information

Coordinates: N39°19'12" W120°8'22"
Elevation is 5904 feet MSL.
Magnetic variation is 14° East
View others Airports in California

Operational data

Special qualification required
Current time UTC:
Current local time:
Weather
METAR: KTRK 211035Z AUTO 00000KT 10SM CLR 08/01 A3019 RMK AO2
TAF: KTRK 210529Z 2106/2206 00000KT P6SM SCT120 FM212100 25010G19KT P6SM FEW120 SCT220 FM220400 00000KT P6SM FEW220
View NOTAMs / SUP AIP / TFR affecting this airport [VIEW]
Communications frequencies: [VIEW]

Runways:

RWY identifierQFULength (ft)Width (ft)SurfaceLDA (ft)
0230°465475ASPH
20210°465475ASPH
11120°7001100ASPH
29300°7001100ASPH

Airport contact information

Address: Truckee United States

Other aviation service providers

Flight schools

Soar Truckee, Inc.

Soar Truckee, Inc.
info@soartruckee.com+1(530)587-6702

Sierra Aero

Sierra Aero
info@flytruckee.com+1(530)359-8751

Pacific North Helicopters

Pacific North Helicopters
sindre@pnh-us.com+1(530)214-0711

Satellite view of KTRK